Time;durP1;ratioP1;P1;durP2;ratioP2;P2;SDS_P1;SDS_P2;PMS_P1;PMS_P2;Temp;Humidity;BMP_temperature;BMP_pressure;BME280_temperature;BME280_humidity;BME280_pressure;Samples;Min_cycle;Max_cycle;Signal;HPM_P1;HPM_P2
2023/11/04 00:00:42;;;;;;;4.45;2.30;;;;;;;25.89;40.79;97804.91;4481625;32;33619;-63
2023/11/04 00:03:30;;;;;;;4.87;2.28;;;;;;;25.87;41.05;97820.75;4483028;32;34475;-63
2023/11/04 00:05:58;;;;;;;4.55;1.90;;;;;;;25.87;41.00;97831.69;4484378;32;33602;-62
2023/11/04 00:08:26;;;;;;;4.32;2.08;;;;;;;25.85;40.95;97839.38;4484893;32;33096;-62
2023/11/04 00:10:53;;;;;;;6.00;2.67;;;;;;;25.84;41.04;97848.69;4483636;32;33932;-63
2023/11/04 00:13:21;;;;;;;5.37;2.30;;;;;;;25.83;41.13;97850.56;4484098;32;34644;-63
2023/11/04 00:15:48;;;;;;;5.70;2.00;;;;;;;25.83;41.25;97852.50;4484129;32;34785;-63
2023/11/04 00:18:16;;;;;;;3.65;1.87;;;;;;;25.81;41.26;97849.25;4484271;31;33607;-63
2023/11/04 00:20:44;;;;;;;6.75;2.20;;;;;;;25.81;41.32;97852.78;4484382;32;33799;-63
2023/11/04 00:23:23;;;;;;;5.53;2.00;;;;;;;25.79;41.39;97852.28;4484256;32;32940;-63
2023/11/04 00:25:50;;;;;;;6.28;2.15;;;;;;;25.79;41.52;97848.75;4484139;32;33907;-63
2023/11/04 00:28:19;;;;;;;4.62;2.00;;;;;;;25.77;41.59;97854.47;4484377;32;33637;-63
2023/11/04 00:30:52;;;;;;;4.35;1.70;;;;;;;25.78;41.67;97852.53;4484224;32;34802;-63
2023/11/04 00:33:39;;;;;;;4.85;1.90;;;;;;;25.77;41.78;97850.94;4484114;32;34857;-63
2023/11/04 00:36:27;;;;;;;4.12;1.83;;;;;;;25.76;41.97;97849.31;4482877;32;33128;-63
2023/11/04 00:39:14;;;;;;;4.45;2.10;;;;;;;25.76;42.01;97846.56;4482844;32;33052;-63
2023/11/04 00:42:02;;;;;;;3.53;1.90;;;;;;;25.75;42.04;97836.72;4482895;32;33140;-62
2023/11/04 00:44:50;;;;;;;5.03;2.20;;;;;;;25.73;42.14;97834.25;4471904;32;33103;-63
2023/11/04 00:47:37;;;;;;;2.75;1.58;;;;;;;25.72;42.27;97835.38;4482690;32;33841;-63
2023/11/04 00:50:26;;;;;;;3.87;1.77;;;;;;;25.71;42.31;97841.94;4483043;32;34108;-63
2023/11/04 00:53:14;;;;;;;5.00;2.22;;;;;;;25.70;42.38;97843.06;4461508;32;32683;-63
2023/11/04 00:56:01;;;;;;;5.15;2.08;;;;;;;25.70;42.30;97846.59;4482510;32;34292;-63
2023/11/04 00:58:51;;;;;;;4.28;2.10;;;;;;;25.68;42.42;97847.97;4482840;32;33232;-63
2023/11/04 01:01:41;;;;;;;3.30;1.67;;;;;;;25.68;42.44;97848.78;4482735;32;32549;-63
2023/11/04 01:04:29;;;;;;;5.10;2.40;;;;;;;25.69;42.54;97852.31;4482405;32;33977;-63
2023/11/04 01:07:16;;;;;;;4.20;2.00;;;;;;;25.67;42.46;97854.53;4482504;32;33275;-63
2023/11/04 01:10:04;;;;;;;3.30;1.58;;;;;;;25.65;42.59;97848.56;4482261;32;34271;-63
2023/11/04 01:12:52;;;;;;;5.05;1.70;;;;;;;25.64;42.65;97853.19;4483345;32;32803;-63
2023/11/04 01:15:39;;;;;;;3.60;2.00;;;;;;;25.63;42.66;97840.62;4484534;32;33329;-63
2023/11/04 01:18:27;;;;;;;5.87;1.62;;;;;;;25.63;42.64;97846.09;4484256;32;32871;-63
2023/11/04 01:21:16;;;;;;;4.80;2.55;;;;;;;25.61;42.70;97837.41;4484500;32;33620;-63
2023/11/04 01:24:04;;;;;;;2.75;1.50;;;;;;;25.61;42.78;97833.84;4484221;32;32530;-63
2023/11/04 01:26:52;;;;;;;4.30;1.52;;;;;;;25.61;42.81;97831.13;4484345;32;33838;-63
2023/11/04 01:29:40;;;;;;;5.80;1.90;;;;;;;25.59;42.98;97839.59;4484573;32;33298;-63
2023/11/04 01:32:27;;;;;;;3.90;1.77;;;;;;;25.57;42.96;97836.34;4484433;32;34577;-63
2023/11/04 01:35:15;;;;;;;3.17;1.67;;;;;;;25.57;42.93;97844.53;4484059;32;33710;-63
2023/11/04 01:38:03;;;;;;;3.67;1.90;;;;;;;25.57;42.91;97851.91;4484228;32;33142;-63
2023/11/04 01:40:51;;;;;;;3.12;1.73;;;;;;;25.56;42.99;97848.38;4484435;32;33426;-63
2023/11/04 01:43:39;;;;;;;2.87;1.50;;;;;;;25.54;42.94;97853.28;4484475;32;33183;-63
2023/11/04 01:46:26;;;;;;;5.32;1.95;;;;;;;25.55;42.97;97848.62;4484462;32;32528;-63
2023/11/04 01:49:14;;;;;;;4.03;2.00;;;;;;;25.54;43.11;97855.22;4473330;32;33103;-63
2023/11/04 01:52:03;;;;;;;4.78;2.03;;;;;;;25.53;43.09;97865.31;4473353;32;33046;-63
2023/11/04 01:54:51;;;;;;;6.35;1.83;;;;;;;25.53;43.02;97876.25;4463029;32;33170;-63
2023/11/04 01:57:38;;;;;;;3.90;1.50;;;;;;;25.52;43.15;97863.69;4484171;32;34116;-63
2023/11/04 02:00:26;;;;;;;3.60;1.70;;;;;;;25.52;43.14;97868.34;4473609;32;34180;-63
2023/11/04 02:03:18;;;;;;;4.70;1.60;;;;;;;25.50;43.14;97868.63;4484183;32;34484;-63
2023/11/04 02:06:07;;;;;;;2.85;1.67;;;;;;;25.50;43.11;97865.88;4473567;32;33797;-63
2023/11/04 02:08:55;;;;;;;3.63;1.60;;;;;;;25.49;43.02;97858.81;4473580;32;33950;-63
2023/11/04 02:11:42;;;;;;;4.28;1.80;;;;;;;25.49;43.08;97858.81;4473588;32;33169;-63
2023/11/04 02:14:30;;;;;;;6.15;1.50;;;;;;;25.49;43.06;97853.34;4473315;32;32963;-63
2023/11/04 02:17:18;;;;;;;4.10;1.75;;;;;;;25.48;43.13;97864.56;4484008;31;34103;-63
2023/11/04 02:20:06;;;;;;;3.35;1.60;;;;;;;25.47;43.25;97861.00;4484098;32;33612;-63
2023/11/04 02:22:53;;;;;;;2.67;1.40;;;;;;;25.45;43.25;97868.66;4473229;32;34576;-63
2023/11/04 02:25:41;;;;;;;3.00;1.80;;;;;;;25.45;43.21;97876.84;4483382;32;33279;-63
2023/11/04 02:28:28;;;;;;;3.25;1.67;;;;;;;25.44;43.18;97880.69;4483612;32;34037;-62
2023/11/04 02:31:16;;;;;;;2.53;1.52;;;;;;;25.43;43.22;97879.06;4483944;32;32702;-63
2023/11/04 02:34:03;;;;;;;3.60;1.90;;;;;;;25.43;43.22;97874.41;4483924;32;33236;-63
2023/11/04 02:36:51;;;;;;;3.20;1.67;;;;;;;25.42;43.25;97866.53;4483794;32;33266;-62
2023/11/04 02:39:39;;;;;;;3.95;1.50;;;;;;;25.42;43.22;97866.53;4483595;32;32961;-63
2023/11/04 02:42:26;;;;;;;3.45;1.80;;;;;;;25.40;43.27;97865.97;4483741;32;32552;-63
2023/11/04 02:45:14;;;;;;;3.33;1.60;;;;;;;25.40;43.21;97868.72;4483285;32;33837;-63
2023/11/04 02:48:02;;;;;;;3.42;1.73;;;;;;;25.38;43.11;97858.09;4483582;32;33395;-63
2023/11/04 02:50:50;;;;;;;7.07;1.70;;;;;;;25.38;43.08;97862.72;4483995;32;33047;-63
2023/11/04 02:53:39;;;;;;;2.95;1.55;;;;;;;25.38;43.18;97862.72;4484002;32;32496;-63
2023/11/04 02:56:26;;;;;;;2.72;1.48;;;;;;;25.36;43.19;97871.19;4483439;32;34040;-62
2023/11/04 02:59:14;;;;;;;3.17;1.42;;;;;;;25.36;43.17;97864.91;4483840;32;33256;-63
2023/11/04 03:02:01;;;;;;;4.03;1.87;;;;;;;25.35;43.20;97875.03;4483750;32;33335;-63
2023/11/04 03:04:49;;;;;;;4.00;1.95;;;;;;;25.35;43.35;97880.47;4483457;32;33302;-63
2023/11/04 03:07:37;;;;;;;3.42;1.70;;;;;;;25.34;43.30;97888.97;4483794;32;33591;-63
2023/11/04 03:10:24;;;;;;;4.37;1.60;;;;;;;25.34;43.24;97888.97;4483673;32;33336;-63
2023/11/04 03:13:12;;;;;;;5.72;1.70;;;;;;;25.32;43.43;97888.41;4483267;32;33674;-63
2023/11/04 03:15:59;;;;;;;3.25;1.70;;;;;;;25.32;43.38;97894.72;4483542;32;32901;-63
2023/11/04 03:18:47;;;;;;;2.85;1.50;;;;;;;25.33;43.37;97890.06;4483406;32;32743;-63
2023/11/04 03:21:35;;;;;;;5.72;1.60;;;;;;;25.32;43.45;97883.81;4472632;32;34362;-63
2023/11/04 03:24:23;;;;;;;3.80;1.58;;;;;;;25.32;43.17;97864.69;4481768;32;33300;-62
2023/11/04 03:27:12;;;;;;;4.75;1.92;;;;;;;25.32;43.45;97891.16;4476664;32;33537;-62
2023/11/04 03:30:00;;;;;;;5.15;1.73;;;;;;;25.30;43.32;97888.72;4469955;32;34011;-63
2023/11/04 03:32:47;;;;;;;4.25;1.62;;;;;;;25.31;43.22;97890.34;4472754;32;33427;-62
2023/11/04 03:35:35;;;;;;;3.15;1.60;;;;;;;25.30;43.14;97894.19;4483501;32;32656;-62
2023/11/04 03:38:22;;;;;;;3.55;1.90;;;;;;;25.29;43.24;97899.94;4483415;32;32703;-63
2023/11/04 03:41:10;;;;;;;4.25;1.80;;;;;;;25.29;43.30;97902.66;4483581;32;33076;-62
2023/11/04 03:43:57;;;;;;;4.12;1.35;;;;;;;25.28;43.35;97899.13;4483601;32;33842;-62
2023/11/04 03:46:45;;;;;;;2.90;1.70;;;;;;;25.28;43.31;97904.56;4476388;32;34484;-63
2023/11/04 03:49:32;;;;;;;3.62;1.92;;;;;;;25.28;43.32;97903.78;4472469;32;32644;-62
2023/11/04 03:52:20;;;;;;;4.32;1.50;;;;;;;25.27;43.35;97902.12;4472486;32;34111;-62
2023/11/04 03:55:08;;;;;;;2.28;1.20;;;;;;;25.26;43.44;97906.75;4472560;32;33252;-62
2023/11/04 03:57:55;;;;;;;3.80;1.45;;;;;;;25.25;43.40;97905.13;4472546;32;33396;-62
2023/11/04 04:00:43;;;;;;;2.17;1.40;;;;;;;25.25;43.45;97912.50;4472371;32;32811;-62
2023/11/04 04:03:31;;;;;;;5.40;1.70;;;;;;;25.25;43.52;97932.44;4470131;32;32916;-62
2023/11/04 04:06:19;;;;;;;2.53;1.48;;;;;;;25.24;43.37;97922.63;4472465;32;33290;-62
2023/11/04 04:09:07;;;;;;;3.37;1.42;;;;;;;25.24;43.39;97917.16;4472290;32;34335;-62
2023/11/04 04:11:56;;;;;;;3.83;1.60;;;;;;;25.24;43.42;97908.16;4470018;32;32421;-62
2023/11/04 04:14:45;;;;;;;4.35;1.67;;;;;;;25.23;43.54;97906.50;4461780;32;34520;-62
2023/11/04 04:17:33;;;;;;;3.75;1.60;;;;;;;25.23;43.33;97915.53;4472137;32;33338;-62
2023/11/04 04:20:21;;;;;;;5.00;1.30;;;;;;;25.23;43.29;97929.19;4472425;32;33208;-62
2023/11/04 04:23:08;;;;;;;4.62;1.90;;;;;;;25.23;43.29;97917.41;4478164;32;32672;-62
2023/11/04 04:25:56;;;;;;;4.40;1.55;;;;;;;25.22;43.42;97915.81;4482996;32;32753;-62
2023/11/04 04:28:43;;;;;;;3.30;1.50;;;;;;;25.21;43.39;97928.63;4483221;32;33384;-62
2023/11/04 04:31:31;;;;;;;2.95;1.70;;;;;;;25.21;43.31;97936.00;4483093;32;33093;-63
2023/11/04 04:34:18;;;;;;;2.97;1.40;;;;;;;25.21;43.40;97936.00;4482990;32;33767;-62
2023/11/04 04:37:07;;;;;;;3.47;1.77;;;;;;;25.19;43.35;97922.66;4482791;32;34045;-62
2023/11/04 04:39:54;;;;;;;2.83;1.50;;;;;;;25.19;43.36;97931.66;4472385;32;33549;-62
2023/11/04 04:42:42;;;;;;;3.67;1.80;;;;;;;25.19;43.36;97944.50;4482966;32;33139;-62
2023/11/04 04:45:29;;;;;;;2.33;1.37;;;;;;;25.18;43.38;97938.22;4472259;32;33586;-62
2023/11/04 04:48:18;;;;;;;3.10;1.33;;;;;;;25.19;43.43;97939.03;4481953;32;34237;-62
2023/11/04 04:51:05;;;;;;;6.87;1.60;;;;;;;25.18;43.50;97931.91;4471971;32;34388;-63
2023/11/04 04:53:53;;;;;;;2.83;1.40;;;;;;;25.17;43.45;97931.09;4475801;32;34067;-62
2023/11/04 04:56:40;;;;;;;4.10;1.83;;;;;;;25.16;43.49;97934.94;4483040;32;32507;-62
2023/11/04 04:59:28;;;;;;;4.15;1.70;;;;;;;25.16;43.50;97923.22;4482413;32;34160;-62
2023/11/04 05:02:16;;;;;;;3.78;2.05;;;;;;;25.15;43.48;97905.22;4482756;32;34326;-62
2023/11/04 05:05:04;;;;;;;3.53;1.45;;;;;;;25.15;43.54;97908.75;4482876;32;34648;-62
2023/11/04 05:07:51;;;;;;;3.67;1.55;;;;;;;25.15;43.30;97916.12;4482467;32;32654;-63
2023/11/04 05:10:39;;;;;;;2.60;1.67;;;;;;;25.14;43.48;97907.13;4482395;32;32755;-62
2023/11/04 05:13:29;;;;;;;2.17;1.40;;;;;;;25.14;43.39;97898.13;4475591;32;34621;-62
2023/11/04 05:16:17;;;;;;;2.67;1.50;;;;;;;25.14;43.47;97888.03;4476178;32;34267;-63
2023/11/04 05:19:05;;;;;;;2.70;1.42;;;;;;;25.12;43.49;97884.75;4482252;32;33602;-63
2023/11/04 05:21:53;;;;;;;3.03;1.23;;;;;;;25.11;43.39;97880.41;4471414;32;34306;-63
2023/11/04 05:24:40;;;;;;;3.03;1.75;;;;;;;25.11;43.54;97883.13;4482472;32;33261;-64
2023/11/04 05:27:28;;;;;;;4.78;1.50;;;;;;;25.12;43.44;97883.94;4483475;32;33532;-63
2023/11/04 05:30:15;;;;;;;1.73;1.30;;;;;;;25.11;43.53;97876.84;4482285;32;32704;-64
2023/11/04 05:33:04;;;;;;;2.60;1.40;;;;;;;25.12;43.55;97884.75;4483222;32;33486;-63
2023/11/04 05:35:52;;;;;;;2.70;1.50;;;;;;;25.13;43.58;97885.56;4482403;32;33198;-64
2023/11/04 05:38:40;;;;;;;2.35;1.45;;;;;;;25.11;43.50;97888.59;4471310;32;33164;-63
2023/11/04 05:41:27;;;;;;;2.62;1.45;;;;;;;25.11;43.63;97882.31;4482190;32;32734;-63
2023/11/04 05:44:15;;;;;;;2.28;1.23;;;;;;;25.11;43.72;97893.22;4481884;32;33191;-63
2023/11/04 05:47:04;;;;;;;4.43;1.45;;;;;;;25.11;43.51;97882.31;4481647;32;34307;-64
2023/11/04 05:49:52;;;;;;;2.45;1.27;;;;;;;25.11;43.63;97888.59;4481934;32;33142;-63
2023/11/04 05:52:42;;;;;;;3.42;1.50;;;;;;;25.11;43.64;97890.50;4470854;32;33689;-63
2023/11/04 05:55:30;;;;;;;3.33;1.50;;;;;;;25.09;43.68;97890.78;4481912;32;33088;-63
2023/11/04 05:58:17;;;;;;;5.95;1.40;;;;;;;25.09;43.61;97896.25;4481969;32;32709;-63
2023/11/04 06:01:05;;;;;;;3.42;1.37;;;;;;;25.09;43.55;97893.53;4483681;32;34050;-63
2023/11/04 06:03:54;;;;;;;4.53;1.50;;;;;;;25.08;43.67;97893.78;4484130;32;32475;-63
2023/11/04 06:06:42;;;;;;;3.03;1.40;;;;;;;25.07;43.69;97901.16;4484263;32;33138;-63
2023/11/04 06:09:33;;;;;;;2.62;1.30;;;;;;;25.08;43.64;97907.44;4484256;32;35096;-63
2023/11/04 06:12:20;;;;;;;3.75;1.30;;;;;;;25.07;43.57;97912.06;4483986;32;33123;-63
2023/11/04 06:15:08;;;;;;;4.12;1.48;;;;;;;25.07;43.68;97916.69;4484300;32;32585;-63
2023/11/04 06:17:56;;;;;;;2.67;1.50;;;;;;;25.05;43.63;97916.97;4473001;32;33007;-63
2023/11/04 06:20:44;;;;;;;2.12;1.33;;;;;;;25.05;43.79;97927.09;4483977;32;33475;-63
2023/11/04 06:23:31;;;;;;;8.65;1.55;;;;;;;25.04;43.62;97915.34;4475680;32;32721;-63
2023/11/04 06:26:22;;;;;;;3.15;1.40;;;;;;;25.04;43.72;97900.88;4470833;32;32524;-63
2023/11/04 06:29:10;;;;;;;4.85;1.70;;;;;;;25.03;43.79;97891.06;4473040;32;33061;-63
2023/11/04 06:31:57;;;;;;;2.00;1.15;;;;;;;25.03;43.78;97871.97;4470734;32;33240;-63
2023/11/04 06:34:45;;;;;;;3.53;1.40;;;;;;;25.02;43.81;97860.25;4473124;32;33376;-63
2023/11/04 06:37:33;;;;;;;2.65;1.30;;;;;;;25.02;43.67;97871.16;4472961;32;32522;-63
2023/11/04 06:40:20;;;;;;;2.12;1.23;;;;;;;25.02;43.56;97895.72;4462409;32;33191;-63
2023/11/04 06:43:08;;;;;;;2.60;1.30;;;;;;;25.02;43.68;97906.63;4473104;32;33279;-63
2023/11/04 06:45:55;;;;;;;3.97;1.60;;;;;;;25.02;43.69;97895.72;4484606;32;33754;-63
2023/11/04 06:48:43;;;;;;;3.17;1.60;;;;;;;25.02;43.61;97901.16;4472999;32;32708;-63
2023/11/04 06:51:31;;;;;;;3.70;1.50;;;;;;;25.02;43.65;97925.72;4470574;32;33861;-63
2023/11/04 06:54:00;;;;;;;3.45;1.70;;;;;;;25.02;43.63;97936.63;4485312;32;34753;-63
2023/11/04 06:56:30;;;;;;;2.80;1.58;;;;;;;25.02;43.71;97933.09;4484662;32;34653;-63
2023/11/04 06:58:58;;;;;;;2.40;1.25;;;;;;;25.00;43.75;97933.38;4457947;32;33359;-63
2023/11/04 07:01:26;;;;;;;2.53;1.35;;;;;;;25.02;43.69;97946.75;4484799;32;33551;-63
2023/11/04 07:03:54;;;;;;;4.32;1.60;;;;;;;25.01;43.88;97947.84;4484706;32;33709;-63
2023/11/04 07:06:22;;;;;;;5.70;1.40;;;;;;;25.01;43.77;97937.75;4484822;32;33803;-63
2023/11/04 07:08:50;;;;;;;4.15;1.37;;;;;;;25.01;43.83;97926.00;4484834;32;33518;-63
2023/11/04 07:11:20;;;;;;;2.80;1.37;;;;;;;25.01;43.71;97934.19;4484700;32;33602;-63
2023/11/04 07:13:48;;;;;;;4.22;1.40;;;;;;;25.01;43.82;97937.75;4470577;32;34862;-63
2023/11/04 07:16:16;;;;;;;3.00;1.35;;;;;;;25.00;43.93;97947.03;4484621;31;34509;-63
2023/11/04 07:18:43;;;;;;;2.90;1.40;;;;;;;25.00;43.78;97949.75;4484802;32;33591;-63
2023/11/04 07:21:11;;;;;;;1.87;1.20;;;;;;;25.00;43.85;97955.22;4484751;32;34491;-63
2023/11/04 07:23:41;;;;;;;4.70;1.55;;;;;;;24.98;43.99;97954.66;4484488;32;33852;-63
2023/11/04 07:26:09;;;;;;;3.50;1.77;;;;;;;24.99;44.01;97952.75;4484697;32;33642;-63
2023/11/04 07:28:36;;;;;;;4.43;1.42;;;;;;;24.99;43.89;97956.28;4484885;32;33448;-63
2023/11/04 07:31:05;;;;;;;9.55;1.87;;;;;;;24.99;43.94;97961.75;4484293;32;33843;-63
2023/11/04 07:33:33;;;;;;;2.20;1.37;;;;;;;25.00;43.79;97957.13;4484712;32;34628;-63
2023/11/04 07:36:01;;;;;;;3.80;1.60;;;;;;;25.00;43.83;97962.59;4483590;32;33968;-63
2023/11/04 07:38:29;;;;;;;1.62;1.00;;;;;;;25.00;43.77;97968.03;4484498;32;33320;-63
2023/11/04 07:40:57;;;;;;;2.12;1.27;;;;;;;24.98;43.94;97962.84;4484696;32;34164;-63
2023/11/04 07:43:24;;;;;;;3.05;1.52;;;;;;;24.99;43.70;97964.47;4484938;32;35028;-63
2023/11/04 07:45:52;;;;;;;2.85;1.45;;;;;;;25.00;43.82;97970.78;4484480;32;33436;-63
2023/11/04 07:48:20;;;;;;;4.85;1.50;;;;;;;24.99;43.90;97980.03;4484613;32;33059;-63
2023/11/04 07:50:49;;;;;;;2.47;1.23;;;;;;;24.99;43.97;97977.31;4484508;32;34672;-62
2023/11/04 07:53:17;;;;;;;4.57;1.50;;;;;;;24.99;43.83;97980.84;4484266;32;33563;-63
2023/11/04 07:55:44;;;;;;;7.18;1.42;;;;;;;24.98;44.00;97981.94;4484457;32;33922;-63
2023/11/04 07:58:15;;;;;;;4.43;1.50;;;;;;;24.97;44.02;97985.78;4483928;32;33519;-64
2023/11/04 08:00:43;;;;;;;5.80;1.45;;;;;;;24.96;43.98;97986.88;4482661;32;33929;-63
2023/11/04 08:03:11;;;;;;;5.28;1.30;;;;;;;24.98;43.83;97992.03;4484164;32;34472;-63
2023/11/04 08:05:42;;;;;;;3.75;1.37;;;;;;;24.98;43.67;97990.13;4484003;32;33992;-63
2023/11/04 08:08:12;;;;;;;2.50;1.37;;;;;;;24.97;43.61;97991.25;4484001;32;33013;-62
2023/11/04 08:10:39;;;;;;;2.12;1.20;;;;;;;24.98;43.73;97987.41;4484147;32;33849;-63
2023/11/04 08:13:08;;;;;;;2.53;1.35;;;;;;;24.99;43.61;97977.31;4482709;32;34869;-62
2023/11/04 08:15:38;;;;;;;3.08;1.40;;;;;;;24.98;43.45;97981.94;4483887;32;33838;-63
2023/11/04 08:18:06;;;;;;;5.12;1.98;;;;;;;25.01;43.37;97978.66;4484256;32;34370;-64
2023/11/04 08:20:34;;;;;;;4.87;1.30;;;;;;;25.01;40.45;97975.94;4484171;32;33841;-63
2023/11/04 08:23:02;;;;;;;2.33;1.40;;;;;;;24.96;41.99;97978.69;4483175;32;34934;-63
2023/11/04 08:25:30;;;;;;;3.60;1.70;;;;;;;24.94;42.44;97970.78;4483737;32;34089;-63
2023/11/04 08:27:57;;;;;;;3.78;1.60;;;;;;;24.96;42.41;97964.25;4484004;32;33606;-65
2023/11/04 08:30:25;;;;;;;4.75;1.42;;;;;;;24.95;42.45;97963.44;4484168;32;34117;-64
2023/11/04 08:32:53;;;;;;;5.82;1.60;;;;;;;24.94;42.48;97959.84;4484118;32;33898;-63
2023/11/04 08:35:20;;;;;;;3.87;1.70;;;;;;;24.96;42.53;97969.69;4481056;32;34650;-63
2023/11/04 08:37:48;;;;;;;3.33;1.48;;;;;;;24.94;42.53;97968.03;4469773;32;32845;-65
2023/11/04 08:40:16;;;;;;;3.28;1.60;;;;;;;24.96;42.61;97967.78;4483834;32;33805;-65
2023/11/04 08:42:43;;;;;;;5.90;1.48;;;;;;;24.96;42.63;97964.25;4483486;32;33796;-63
2023/11/04 08:45:13;;;;;;;2.65;1.25;;;;;;;24.96;42.66;97964.25;4484010;32;33793;-64
2023/11/04 08:47:41;;;;;;;;;;;;;;;24.96;42.69;97965.06;4484499;32;33308;-64
2023/11/04 08:50:09;;;;;;;3.05;1.37;;;;;;;25.07;42.55;97952.16;4483836;32;34153;-62
2023/11/04 08:52:38;;;;;;;2.75;1.20;;;;;;;24.99;42.73;97948.09;4482285;32;34395;-63
2023/11/04 08:55:07;;;;;;;4.15;1.45;;;;;;;24.97;42.87;97939.41;4483212;32;34484;-63
2023/11/04 08:57:34;;;;;;;4.07;1.62;;;;;;;24.97;43.01;97938.59;4468074;32;33488;-62
2023/11/04 09:00:05;;;;;;;4.25;1.85;;;;;;;24.97;43.02;97936.66;4467799;32;33405;-62
2023/11/04 09:02:33;;;;;;;3.53;1.23;;;;;;;24.97;43.07;97936.66;4466550;32;33829;-63
2023/11/04 09:05:00;;;;;;;4.18;1.62;;;;;;;24.99;43.14;97930.91;4466307;32;33572;-62
2023/11/04 09:07:35;;;;;;;2.30;1.10;;;;;;;24.98;43.15;97921.13;4467664;32;33493;-64
2023/11/04 09:10:03;;;;;;;4.53;1.50;;;;;;;24.98;43.12;97923.84;4479617;32;33977;-64
2023/11/04 09:12:31;;;;;;;5.05;1.52;;;;;;;24.99;43.16;97925.47;4483781;32;34823;-63
2023/11/04 09:14:58;;;;;;;4.55;1.45;;;;;;;24.98;43.22;97921.91;4483620;32;34883;-64
2023/11/04 09:17:26;;;;;;;10.75;1.77;;;;;;;24.98;43.20;97919.19;4483289;32;33456;-63
2023/11/04 09:19:54;;;;;;;8.55;1.58;;;;;;;24.98;43.25;97915.66;4482318;32;33701;-62
2023/11/04 09:22:21;;;;;;;2.75;1.35;;;;;;;24.98;43.28;97907.47;4482015;32;34951;-65
2023/11/04 09:24:49;;;;;;;3.53;1.40;;;;;;;24.98;43.26;97908.28;4482995;32;33474;-67
2023/11/04 09:27:16;;;;;;;5.00;1.62;;;;;;;24.99;43.33;97895.44;4482851;32;33951;-65
2023/11/04 09:29:44;;;;;;;3.45;1.40;;;;;;;25.00;43.39;97894.38;4477605;32;33858;-64
2023/11/04 09:32:12;;;;;;;4.80;1.40;;;;;;;25.00;43.33;97895.19;4482745;31;33881;-65
2023/11/04 09:34:40;;;;;;;12.50;1.62;;;;;;;25.00;43.41;97887.00;4500045;31;33631;-66
2023/11/04 09:37:08;;;;;;;9.85;1.85;;;;;;;25.01;43.42;97882.34;4477848;32;33771;-66
2023/11/04 09:39:36;;;;;;;5.35;1.40;;;;;;;25.00;43.40;97884.28;4484289;32;33861;-66
2023/11/04 09:42:05;;;;;;;6.37;1.80;;;;;;;25.01;43.47;97894.09;4484887;32;33521;-65
2023/11/04 09:44:33;;;;;;;5.05;1.23;;;;;;;25.00;43.52;97892.47;4470864;32;33696;-63
2023/11/04 09:47:01;;;;;;;10.40;1.70;;;;;;;25.02;43.56;97895.72;4484410;32;33419;-64
2023/11/04 09:49:28;;;;;;;9.77;1.80;;;;;;;25.02;43.60;97897.63;4484470;32;33818;-64
2023/11/04 09:51:56;;;;;;;4.55;1.55;;;;;;;25.02;43.59;97901.16;4484748;32;33724;-64
2023/11/04 09:54:24;;;;;;;6.85;1.27;;;;;;;25.02;43.59;97892.16;4470304;32;33662;-65
2023/11/04 09:56:51;;;;;;;6.32;1.55;;;;;;;25.01;43.67;97880.44;4483399;32;33340;-65
2023/11/04 09:59:19;;;;;;;6.32;1.90;;;;;;;25.02;43.68;97883.97;4470548;32;33845;-66
2023/11/04 10:01:47;;;;;;;6.20;1.83;;;;;;;25.02;43.70;97876.59;4484450;32;34674;-65
2023/11/04 10:04:15;;;;;;;8.15;1.80;;;;;;;25.02;43.75;97873.06;4484585;32;34113;-64
2023/11/04 10:06:47;;;;;;;7.65;1.80;;;;;;;25.02;43.72;97873.87;4484540;32;33563;-63
2023/11/04 10:09:15;;;;;;;7.45;1.52;;;;;;;25.03;43.72;97869.22;4483169;32;33917;-64
2023/11/04 10:11:42;;;;;;;12.30;2.03;;;;;;;25.02;43.65;97856.69;4484624;32;33969;-63
2023/11/04 10:14:10;;;;;;;6.87;1.60;;;;;;;25.11;43.62;97864.03;4483285;32;34537;-63
2023/11/04 10:16:38;;;;;;;4.78;1.85;;;;;;;25.07;43.80;97857.50;4475525;32;33371;-63
2023/11/04 10:19:05;;;;;;;5.60;1.60;;;;;;;25.08;43.92;97855.59;4470659;32;33878;-65
2023/11/04 10:21:33;;;;;;;10.20;1.83;;;;;;;25.14;44.00;97849.81;4484437;32;33560;-65
2023/11/04 10:24:01;;;;;;;5.72;1.80;;;;;;;25.26;43.90;97845.91;4470310;32;33063;-66
2023/11/04 10:26:28;;;;;;;6.90;2.10;;;;;;;25.34;43.79;97845.28;4484538;32;33428;-65
2023/11/04 10:28:56;;;;;;;6.37;1.83;;;;;;;25.44;43.65;97847.94;4484304;32;33825;-63
2023/11/04 10:31:24;;;;;;;5.90;1.67;;;;;;;25.50;43.57;97838.59;4484405;32;34504;-62
2023/11/04 10:33:55;;;;;;;10.32;1.70;;;;;;;25.55;43.48;97837.72;4483416;32;33416;-64
2023/11/04 10:36:23;;;;;;;3.55;1.30;;;;;;;25.60;43.32;97835.78;4470495;32;34180;-65
2023/11/04 10:39:00;;;;;;;6.70;1.92;;;;;;;25.68;43.06;97834.31;4470312;32;33468;-63
2023/11/04 10:41:33;;;;;;;4.68;1.73;;;;;;;25.75;42.91;97839.47;4470645;32;33379;-64
2023/11/04 10:44:15;;;;;;;8.05;1.83;;;;;;;25.84;42.53;97838.56;4470748;32;33725;-63
2023/11/04 10:46:45;;;;;;;11.00;1.77;;;;;;;25.93;41.94;97836.00;4482950;32;33316;-63
2023/11/04 10:49:23;;;;;;;13.62;1.65;;;;;;;26.06;41.23;97838.03;4482969;32;34395;-63
2023/11/04 10:52:04;;;;;;;5.28;1.70;;;;;;;26.19;41.10;97833.78;4484432;32;34799;-64
2023/11/04 10:55:08;;;;;;;6.85;1.58;;;;;;;26.30;41.08;97827.09;4484369;32;34020;-64
2023/11/04 10:57:40;;;;;;;6.47;1.42;;;;;;;26.45;41.04;97820.66;4450851;31;33110;-64
2023/11/04 11:02:45;;;;;;;9.45;2.00;;;;;;;26.57;41.06;97818.28;4482679;32;34716;-64
2023/11/04 11:05:14;;;;;;;6.65;1.80;;;;;;;26.62;41.06;97820.94;4484357;32;33670;-64
2023/11/04 11:07:45;;;;;;;8.70;1.42;;;;;;;26.68;41.01;97811.56;4484353;32;33807;-64
2023/11/04 11:10:14;;;;;;;9.90;2.40;;;;;;;26.74;41.01;97806.00;4484073;32;34471;-71
2023/11/04 11:12:52;;;;;;;6.07;1.95;;;;;;;26.75;41.04;97802.16;4484287;32;33938;-71
2023/11/04 11:15:20;;;;;;;5.82;1.50;;;;;;;26.75;41.04;97797.50;4482677;32;33808;-68
2023/11/04 11:18:00;;;;;;;7.12;1.50;;;;;;;26.75;41.01;97799.44;4482922;31;33459;-68
2023/11/04 11:20:33;;;;;;;7.15;1.50;;;;;;;26.76;40.82;97790.91;4484093;32;34222;-68
2023/11/04 11:23:08;;;;;;;5.90;1.77;;;;;;;26.74;40.81;97795.06;4482911;32;33977;-64
2023/11/04 11:25:39;;;;;;;8.43;2.17;;;;;;;26.72;40.80;97798.13;4483025;32;34915;-70
2023/11/04 11:28:16;;;;;;;3.67;1.52;;;;;;;26.70;40.81;97792.91;4482874;32;33051;-65
2023/11/04 11:30:53;;;;;;;5.20;1.85;;;;;;;26.69;40.95;97785.81;4491324;31;33821;-64
2023/11/04 11:33:27;;;;;;;6.70;1.70;;;;;;;26.66;40.95;97786.41;4499533;31;34811;-67
2023/11/04 11:35:59;;;;;;;8.10;1.67;;;;;;;26.65;40.97;97783.97;4499862;31;33833;-65
2023/11/04 11:38:28;;;;;;;10.63;2.30;;;;;;;26.63;41.00;97780.75;4499768;31;34255;-68
2023/11/04 11:41:04;;;;;;;6.35;1.75;;;;;;;26.61;40.98;97778.28;4499791;31;34594;-67
2023/11/04 11:43:32;;;;;;;4.55;1.80;;;;;;;26.60;40.99;97786.78;4499869;31;33915;-67
2023/11/04 11:46:00;;;;;;;5.80;1.77;;;;;;;26.57;41.08;97785.44;4498387;31;33756;-64
2023/11/04 11:48:29;;;;;;;8.85;2.60;;;;;;;26.55;41.12;97784.94;4499560;31;33744;-71
2023/11/04 11:50:57;;;;;;;6.43;1.57;;;;;;;26.53;41.14;97787.12;4499427;31;34548;-71
2023/11/04 11:53:24;;;;;;;7.93;1.90;;;;;;;26.53;41.16;97791.81;4498538;31;34987;-71
2023/11/04 11:55:57;;;;;;;7.22;1.80;;;;;;;26.49;41.19;97794.34;4498852;31;33640;-67
2023/11/04 11:58:26;;;;;;;5.07;1.58;;;;;;;26.47;41.20;97793.00;4498816;31;34339;-70
2023/11/04 12:00:54;;;;;;;5.00;1.50;;;;;;;26.43;41.12;97788.09;4500487;31;34747;-71
2023/11/04 12:03:22;;;;;;;6.20;1.60;;;;;;;26.41;40.96;97782.09;4500296;31;34093;-72
2023/11/04 12:05:52;;;;;;;4.30;1.62;;;;;;;26.38;40.70;97777.22;4499101;31;35102;-69
2023/11/04 12:08:22;;;;;;;5.87;1.30;;;;;;;26.34;40.49;97773.44;4500509;31;33506;-72
2023/11/04 12:10:51;;;;;;;3.47;1.30;;;;;;;26.32;40.16;97766.66;4499970;31;34491;-70
2023/11/04 12:13:19;;;;;;;4.07;1.30;;;;;;;26.29;39.93;97767.22;4499984;31;34121;-70
2023/11/04 12:15:48;;;;;;;3.80;1.27;;;;;;;26.25;39.69;97769.72;4494263;31;33994;-70
2023/11/04 12:18:16;;;;;;;4.93;1.60;;;;;;;26.22;39.55;97762.13;4484326;32;34006;-72
2023/11/04 12:20:44;;;;;;;5.28;1.17;;;;;;;26.20;39.30;97762.41;4483024;32;34516;-71
2023/11/04 12:23:13;;;;;;;3.92;1.30;;;;;;;26.17;39.09;97771.22;4483090;32;34245;-71
2023/11/04 12:25:41;;;;;;;2.65;1.10;;;;;;;26.13;39.10;97764.72;4484391;32;33866;-72
2023/11/04 12:28:09;;;;;;;2.42;0.82;;;;;;;26.11;38.96;97764.19;4484199;32;33249;-71